sensor_id;sensor_type;location;lat;lon;timestamp;P1;durP1;ratioP1;P2;durP2;ratioP2
48534;SDS011;34323;52.022;5.686;2023-06-26T00:01:37;8.05;;;6.40;;
48534;SDS011;34323;52.022;5.686;2023-06-26T00:04:04;7.78;;;6.57;;
48534;SDS011;34323;52.022;5.686;2023-06-26T00:06:31;9.60;;;6.80;;
48534;SDS011;34323;52.022;5.686;2023-06-26T00:08:56;10.48;;;7.70;;
48534;SDS011;34323;52.022;5.686;2023-06-26T00:11:23;7.72;;;6.63;;
48534;SDS011;34323;52.022;5.686;2023-06-26T00:13:51;9.65;;;7.00;;
48534;SDS011;34323;52.022;5.686;2023-06-26T00:16:16;10.95;;;6.93;;
48534;SDS011;34323;52.022;5.686;2023-06-26T00:18:42;9.05;;;6.97;;
48534;SDS011;34323;52.022;5.686;2023-06-26T00:21:07;8.13;;;6.40;;
48534;SDS011;34323;52.022;5.686;2023-06-26T00:23:33;10.95;;;7.07;;
48534;SDS011;34323;52.022;5.686;2023-06-26T00:26:01;9.95;;;6.95;;
48534;SDS011;34323;52.022;5.686;2023-06-26T00:28:28;9.43;;;7.10;;
48534;SDS011;34323;52.022;5.686;2023-06-26T00:30:53;8.93;;;6.93;;
48534;SDS011;34323;52.022;5.686;2023-06-26T00:33:19;8.23;;;6.57;;
48534;SDS011;34323;52.022;5.686;2023-06-26T00:35:44;9.10;;;6.88;;
48534;SDS011;34323;52.022;5.686;2023-06-26T00:38:10;8.20;;;6.15;;
48534;SDS011;34323;52.022;5.686;2023-06-26T00:40:35;12.23;;;6.55;;
48534;SDS011;34323;52.022;5.686;2023-06-26T00:43:01;11.63;;;6.80;;
48534;SDS011;34323;52.022;5.686;2023-06-26T00:45:27;7.90;;;6.25;;
48534;SDS011;34323;52.022;5.686;2023-06-26T00:47:53;7.68;;;6.60;;
48534;SDS011;34323;52.022;5.686;2023-06-26T00:50:18;8.13;;;6.80;;
48534;SDS011;34323;52.022;5.686;2023-06-26T00:52:44;9.77;;;8.13;;
48534;SDS011;34323;52.022;5.686;2023-06-26T00:55:10;9.73;;;6.93;;
48534;SDS011;34323;52.022;5.686;2023-06-26T00:57:36;10.95;;;6.95;;
48534;SDS011;34323;52.022;5.686;2023-06-26T01:00:02;10.25;;;6.88;;
48534;SDS011;34323;52.022;5.686;2023-06-26T01:02:29;13.02;;;6.82;;
48534;SDS011;34323;52.022;5.686;2023-06-26T01:04:58;9.57;;;7.18;;
48534;SDS011;34323;52.022;5.686;2023-06-26T01:07:28;9.65;;;6.93;;
48534;SDS011;34323;52.022;5.686;2023-06-26T01:09:54;7.80;;;6.72;;
48534;SDS011;34323;52.022;5.686;2023-06-26T01:12:20;10.68;;;6.90;;
48534;SDS011;34323;52.022;5.686;2023-06-26T01:14:46;9.52;;;7.00;;
48534;SDS011;34323;52.022;5.686;2023-06-26T01:17:12;8.23;;;6.78;;
48534;SDS011;34323;52.022;5.686;2023-06-26T01:19:40;9.48;;;6.80;;
48534;SDS011;34323;52.022;5.686;2023-06-26T01:24:39;15.48;;;7.82;;
48534;SDS011;34323;52.022;5.686;2023-06-26T01:27:14;9.43;;;7.45;;
48534;SDS011;34323;52.022;5.686;2023-06-26T01:29:41;8.73;;;7.57;;
48534;SDS011;34323;52.022;5.686;2023-06-26T01:32:12;9.60;;;7.65;;
48534;SDS011;34323;52.022;5.686;2023-06-26T01:34:38;10.02;;;8.27;;
48534;SDS011;34323;52.022;5.686;2023-06-26T01:37:03;10.07;;;8.35;;
48534;SDS011;34323;52.022;5.686;2023-06-26T01:39:29;11.10;;;8.15;;
48534;SDS011;34323;52.022;5.686;2023-06-26T01:41:55;11.82;;;8.07;;
48534;SDS011;34323;52.022;5.686;2023-06-26T01:44:28;11.43;;;8.25;;
48534;SDS011;34323;52.022;5.686;2023-06-26T01:46:58;11.07;;;7.82;;
48534;SDS011;34323;52.022;5.686;2023-06-26T01:52:27;10.80;;;7.03;;
48534;SDS011;34323;52.022;5.686;2023-06-26T01:57:36;12.55;;;5.60;;
48534;SDS011;34323;52.022;5.686;2023-06-26T02:00:03;9.57;;;4.95;;
48534;SDS011;34323;52.022;5.686;2023-06-26T02:02:30;8.18;;;5.88;;
48534;SDS011;34323;52.022;5.686;2023-06-26T02:04:56;8.55;;;4.70;;
48534;SDS011;34323;52.022;5.686;2023-06-26T02:07:22;6.43;;;5.03;;
48534;SDS011;34323;52.022;5.686;2023-06-26T02:09:47;9.05;;;4.65;;
48534;SDS011;34323;52.022;5.686;2023-06-26T02:12:13;8.00;;;4.63;;
48534;SDS011;34323;52.022;5.686;2023-06-26T02:14:39;8.82;;;4.70;;
48534;SDS011;34323;52.022;5.686;2023-06-26T02:17:04;8.52;;;4.65;;
48534;SDS011;34323;52.022;5.686;2023-06-26T02:19:30;9.02;;;4.47;;
48534;SDS011;34323;52.022;5.686;2023-06-26T02:21:55;9.68;;;4.55;;
48534;SDS011;34323;52.022;5.686;2023-06-26T02:24:21;7.93;;;4.25;;
48534;SDS011;34323;52.022;5.686;2023-06-26T02:26:46;6.75;;;4.40;;
48534;SDS011;34323;52.022;5.686;2023-06-26T02:29:14;10.60;;;4.32;;
48534;SDS011;34323;52.022;5.686;2023-06-26T02:31:39;8.38;;;4.38;;
48534;SDS011;34323;52.022;5.686;2023-06-26T02:34:05;10.88;;;4.05;;
48534;SDS011;34323;52.022;5.686;2023-06-26T02:36:31;8.07;;;4.57;;
48534;SDS011;34323;52.022;5.686;2023-06-26T02:38:56;6.22;;;4.13;;
48534;SDS011;34323;52.022;5.686;2023-06-26T02:41:22;8.10;;;4.28;;
48534;SDS011;34323;52.022;5.686;2023-06-26T02:43:47;12.27;;;4.30;;
48534;SDS011;34323;52.022;5.686;2023-06-26T02:46:13;8.02;;;4.35;;
48534;SDS011;34323;52.022;5.686;2023-06-26T02:48:38;10.35;;;3.83;;
48534;SDS011;34323;52.022;5.686;2023-06-26T02:51:05;11.60;;;4.18;;
48534;SDS011;34323;52.022;5.686;2023-06-26T02:53:32;8.07;;;4.30;;
48534;SDS011;34323;52.022;5.686;2023-06-26T02:55:57;5.88;;;3.75;;
48534;SDS011;34323;52.022;5.686;2023-06-26T02:58:23;7.78;;;3.80;;
48534;SDS011;34323;52.022;5.686;2023-06-26T03:00:48;14.63;;;4.53;;
48534;SDS011;34323;52.022;5.686;2023-06-26T03:03:14;8.10;;;3.63;;
48534;SDS011;34323;52.022;5.686;2023-06-26T03:05:39;7.38;;;3.67;;
48534;SDS011;34323;52.022;5.686;2023-06-26T03:08:05;6.80;;;3.88;;
48534;SDS011;34323;52.022;5.686;2023-06-26T03:10:31;10.43;;;4.65;;
48534;SDS011;34323;52.022;5.686;2023-06-26T03:12:56;9.18;;;4.07;;
48534;SDS011;34323;52.022;5.686;2023-06-26T03:15:22;13.38;;;4.82;;
48534;SDS011;34323;52.022;5.686;2023-06-26T03:17:47;8.90;;;4.57;;
48534;SDS011;34323;52.022;5.686;2023-06-26T03:20:13;13.00;;;4.88;;
48534;SDS011;34323;52.022;5.686;2023-06-26T03:22:38;10.48;;;3.97;;
48534;SDS011;34323;52.022;5.686;2023-06-26T03:25:04;8.45;;;4.68;;
48534;SDS011;34323;52.022;5.686;2023-06-26T03:27:30;10.30;;;4.18;;
48534;SDS011;34323;52.022;5.686;2023-06-26T03:29:55;11.00;;;5.22;;
48534;SDS011;34323;52.022;5.686;2023-06-26T03:32:21;9.90;;;4.57;;
48534;SDS011;34323;52.022;5.686;2023-06-26T03:34:46;14.13;;;5.10;;
48534;SDS011;34323;52.022;5.686;2023-06-26T03:37:12;11.88;;;4.63;;
48534;SDS011;34323;52.022;5.686;2023-06-26T03:39:38;10.00;;;4.95;;
48534;SDS011;34323;52.022;5.686;2023-06-26T03:42:03;9.63;;;4.03;;
48534;SDS011;34323;52.022;5.686;2023-06-26T03:44:29;15.35;;;4.45;;
48534;SDS011;34323;52.022;5.686;2023-06-26T03:46:54;14.48;;;4.50;;
48534;SDS011;34323;52.022;5.686;2023-06-26T03:49:20;14.10;;;4.68;;
48534;SDS011;34323;52.022;5.686;2023-06-26T03:51:46;13.45;;;4.85;;
48534;SDS011;34323;52.022;5.686;2023-06-26T03:54:11;11.80;;;4.57;;
48534;SDS011;34323;52.022;5.686;2023-06-26T03:56:37;13.02;;;4.90;;
48534;SDS011;34323;52.022;5.686;2023-06-26T03:59:03;14.15;;;5.43;;
48534;SDS011;34323;52.022;5.686;2023-06-26T04:01:28;10.88;;;4.55;;
48534;SDS011;34323;52.022;5.686;2023-06-26T04:03:54;16.77;;;5.32;;
48534;SDS011;34323;52.022;5.686;2023-06-26T04:06:20;11.52;;;5.03;;
48534;SDS011;34323;52.022;5.686;2023-06-26T04:08:45;12.07;;;4.28;;
48534;SDS011;34323;52.022;5.686;2023-06-26T04:11:11;13.90;;;5.30;;
48534;SDS011;34323;52.022;5.686;2023-06-26T04:13:36;19.45;;;6.20;;
48534;SDS011;34323;52.022;5.686;2023-06-26T04:16:02;15.00;;;4.47;;
48534;SDS011;34323;52.022;5.686;2023-06-26T04:18:28;12.65;;;4.47;;
48534;SDS011;34323;52.022;5.686;2023-06-26T04:21:04;16.08;;;5.75;;
48534;SDS011;34323;52.022;5.686;2023-06-26T04:26:04;14.27;;;5.20;;
48534;SDS011;34323;52.022;5.686;2023-06-26T04:28:33;10.10;;;4.60;;
48534;SDS011;34323;52.022;5.686;2023-06-26T04:30:59;17.50;;;5.82;;
48534;SDS011;34323;52.022;5.686;2023-06-26T04:33:26;11.10;;;3.88;;
48534;SDS011;34323;52.022;5.686;2023-06-26T04:35:52;19.05;;;5.60;;
48534;SDS011;34323;52.022;5.686;2023-06-26T04:38:18;14.93;;;5.03;;
48534;SDS011;34323;52.022;5.686;2023-06-26T04:40:44;16.00;;;5.85;;
48534;SDS011;34323;52.022;5.686;2023-06-26T04:43:10;15.70;;;6.30;;
48534;SDS011;34323;52.022;5.686;2023-06-26T04:45:35;17.45;;;5.97;;
48534;SDS011;34323;52.022;5.686;2023-06-26T04:48:01;17.00;;;5.45;;
48534;SDS011;34323;52.022;5.686;2023-06-26T04:50:28;12.50;;;4.95;;
48534;SDS011;34323;52.022;5.686;2023-06-26T04:52:54;18.85;;;4.60;;
48534;SDS011;34323;52.022;5.686;2023-06-26T04:55:20;21.75;;;5.80;;
48534;SDS011;34323;52.022;5.686;2023-06-26T04:57:46;15.23;;;5.55;;
48534;SDS011;34323;52.022;5.686;2023-06-26T05:00:12;20.73;;;5.43;;
48534;SDS011;34323;52.022;5.686;2023-06-26T05:02:38;14.90;;;4.95;;
48534;SDS011;34323;52.022;5.686;2023-06-26T05:05:04;15.55;;;5.25;;
48534;SDS011;34323;52.022;5.686;2023-06-26T05:07:30;14.80;;;5.00;;
48534;SDS011;34323;52.022;5.686;2023-06-26T05:09:55;12.48;;;4.40;;
48534;SDS011;34323;52.022;5.686;2023-06-26T05:12:21;13.93;;;5.20;;
48534;SDS011;34323;52.022;5.686;2023-06-26T05:14:46;8.50;;;3.95;;
48534;SDS011;34323;52.022;5.686;2023-06-26T05:17:15;13.27;;;4.63;;
48534;SDS011;34323;52.022;5.686;2023-06-26T05:19:41;13.10;;;4.30;;
48534;SDS011;34323;52.022;5.686;2023-06-26T05:22:07;14.02;;;4.35;;
48534;SDS011;34323;52.022;5.686;2023-06-26T05:24:35;10.52;;;4.03;;
48534;SDS011;34323;52.022;5.686;2023-06-26T05:27:02;14.85;;;4.30;;
48534;SDS011;34323;52.022;5.686;2023-06-26T05:29:30;9.95;;;4.30;;
48534;SDS011;34323;52.022;5.686;2023-06-26T05:31:56;13.02;;;4.05;;
48534;SDS011;34323;52.022;5.686;2023-06-26T05:34:22;14.30;;;4.10;;
48534;SDS011;34323;52.022;5.686;2023-06-26T05:36:50;9.50;;;3.67;;
48534;SDS011;34323;52.022;5.686;2023-06-26T05:39:16;9.40;;;3.90;;
48534;SDS011;34323;52.022;5.686;2023-06-26T05:41:45;11.55;;;3.63;;
48534;SDS011;34323;52.022;5.686;2023-06-26T05:44:11;9.70;;;3.53;;
48534;SDS011;34323;52.022;5.686;2023-06-26T05:46:37;19.73;;;3.58;;
48534;SDS011;34323;52.022;5.686;2023-06-26T05:49:03;18.95;;;3.80;;
48534;SDS011;34323;52.022;5.686;2023-06-26T05:51:29;10.85;;;2.92;;
48534;SDS011;34323;52.022;5.686;2023-06-26T05:53:54;8.50;;;4.10;;
48534;SDS011;34323;52.022;5.686;2023-06-26T05:56:20;8.70;;;3.17;;
48534;SDS011;34323;52.022;5.686;2023-06-26T05:58:46;8.05;;;2.88;;
48534;SDS011;34323;52.022;5.686;2023-06-26T06:01:13;10.50;;;3.50;;
48534;SDS011;34323;52.022;5.686;2023-06-26T06:03:39;10.38;;;2.70;;
48534;SDS011;34323;52.022;5.686;2023-06-26T06:06:04;9.10;;;3.08;;
48534;SDS011;34323;52.022;5.686;2023-06-26T06:08:30;5.88;;;2.50;;
48534;SDS011;34323;52.022;5.686;2023-06-26T06:10:56;5.18;;;2.65;;
48534;SDS011;34323;52.022;5.686;2023-06-26T06:13:21;6.80;;;2.95;;
48534;SDS011;34323;52.022;5.686;2023-06-26T06:15:47;8.23;;;2.50;;
48534;SDS011;34323;52.022;5.686;2023-06-26T06:18:12;8.68;;;2.78;;
48534;SDS011;34323;52.022;5.686;2023-06-26T06:20:38;5.15;;;2.88;;
48534;SDS011;34323;52.022;5.686;2023-06-26T06:23:04;6.85;;;3.05;;
48534;SDS011;34323;52.022;5.686;2023-06-26T06:25:29;9.52;;;2.75;;
48534;SDS011;34323;52.022;5.686;2023-06-26T06:27:55;7.85;;;3.05;;
48534;SDS011;34323;52.022;5.686;2023-06-26T06:30:20;6.30;;;1.88;;
48534;SDS011;34323;52.022;5.686;2023-06-26T06:32:46;10.32;;;2.30;;
48534;SDS011;34323;52.022;5.686;2023-06-26T06:35:15;6.15;;;2.70;;
48534;SDS011;34323;52.022;5.686;2023-06-26T06:37:42;7.30;;;2.90;;
48534;SDS011;34323;52.022;5.686;2023-06-26T06:40:09;5.95;;;2.20;;
48534;SDS011;34323;52.022;5.686;2023-06-26T06:42:35;4.72;;;2.28;;
48534;SDS011;34323;52.022;5.686;2023-06-26T06:45:03;8.93;;;2.53;;
48534;SDS011;34323;52.022;5.686;2023-06-26T06:47:30;9.80;;;3.05;;
48534;SDS011;34323;52.022;5.686;2023-06-26T06:49:59;8.85;;;2.60;;
48534;SDS011;34323;52.022;5.686;2023-06-26T06:52:32;3.67;;;2.10;;
48534;SDS011;34323;52.022;5.686;2023-06-26T06:55:02;7.05;;;2.40;;
48534;SDS011;34323;52.022;5.686;2023-06-26T06:57:33;8.38;;;2.35;;
48534;SDS011;34323;52.022;5.686;2023-06-26T07:00:03;6.78;;;2.30;;
48534;SDS011;34323;52.022;5.686;2023-06-26T07:02:29;9.52;;;2.67;;
48534;SDS011;34323;52.022;5.686;2023-06-26T07:04:55;8.43;;;2.50;;
48534;SDS011;34323;52.022;5.686;2023-06-26T07:07:20;3.40;;;2.08;;
48534;SDS011;34323;52.022;5.686;2023-06-26T07:09:46;4.85;;;2.67;;
48534;SDS011;34323;52.022;5.686;2023-06-26T07:12:11;4.22;;;2.50;;
48534;SDS011;34323;52.022;5.686;2023-06-26T07:14:38;3.65;;;2.17;;
48534;SDS011;34323;52.022;5.686;2023-06-26T07:17:04;9.25;;;2.40;;
48534;SDS011;34323;52.022;5.686;2023-06-26T07:19:30;7.72;;;2.90;;
48534;SDS011;34323;52.022;5.686;2023-06-26T07:21:55;9.02;;;2.92;;
48534;SDS011;34323;52.022;5.686;2023-06-26T07:24:21;6.15;;;2.35;;
48534;SDS011;34323;52.022;5.686;2023-06-26T07:26:46;4.35;;;2.30;;
48534;SDS011;34323;52.022;5.686;2023-06-26T07:29:12;13.57;;;3.10;;
48534;SDS011;34323;52.022;5.686;2023-06-26T07:31:37;10.38;;;2.60;;
48534;SDS011;34323;52.022;5.686;2023-06-26T07:34:03;5.05;;;2.38;;
48534;SDS011;34323;52.022;5.686;2023-06-26T07:36:29;8.63;;;2.88;;
48534;SDS011;34323;52.022;5.686;2023-06-26T07:38:54;9.00;;;2.80;;
48534;SDS011;34323;52.022;5.686;2023-06-26T07:41:20;6.05;;;2.20;;
48534;SDS011;34323;52.022;5.686;2023-06-26T07:43:45;9.52;;;3.50;;
48534;SDS011;34323;52.022;5.686;2023-06-26T07:46:11;5.93;;;2.50;;
48534;SDS011;34323;52.022;5.686;2023-06-26T07:48:36;8.27;;;2.60;;
48534;SDS011;34323;52.022;5.686;2023-06-26T07:51:02;8.45;;;2.42;;
48534;SDS011;34323;52.022;5.686;2023-06-26T07:53:27;4.03;;;2.50;;
48534;SDS011;34323;52.022;5.686;2023-06-26T07:55:53;7.13;;;2.65;;
48534;SDS011;34323;52.022;5.686;2023-06-26T07:58:18;5.07;;;2.35;;
48534;SDS011;34323;52.022;5.686;2023-06-26T08:00:44;4.75;;;2.53;;
48534;SDS011;34323;52.022;5.686;2023-06-26T08:03:09;8.13;;;2.80;;
48534;SDS011;34323;52.022;5.686;2023-06-26T08:05:35;6.90;;;2.50;;
48534;SDS011;34323;52.022;5.686;2023-06-26T08:08:00;8.15;;;2.50;;
48534;SDS011;34323;52.022;5.686;2023-06-26T08:10:27;6.32;;;2.60;;
48534;SDS011;34323;52.022;5.686;2023-06-26T08:12:53;7.63;;;2.70;;
48534;SDS011;34323;52.022;5.686;2023-06-26T08:15:20;8.18;;;2.50;;
48534;SDS011;34323;52.022;5.686;2023-06-26T08:17:46;12.43;;;4.28;;
48534;SDS011;34323;52.022;5.686;2023-06-26T08:20:12;5.53;;;2.88;;
48534;SDS011;34323;52.022;5.686;2023-06-26T08:22:37;3.95;;;1.95;;
48534;SDS011;34323;52.022;5.686;2023-06-26T08:25:03;8.32;;;2.50;;
48534;SDS011;34323;52.022;5.686;2023-06-26T08:27:30;4.85;;;2.75;;
48534;SDS011;34323;52.022;5.686;2023-06-26T08:29:56;7.20;;;2.80;;
48534;SDS011;34323;52.022;5.686;2023-06-26T08:32:22;5.78;;;2.60;;
48534;SDS011;34323;52.022;5.686;2023-06-26T08:34:47;6.20;;;2.33;;
48534;SDS011;34323;52.022;5.686;2023-06-26T08:37:13;4.70;;;2.50;;
48534;SDS011;34323;52.022;5.686;2023-06-26T08:39:38;5.22;;;2.00;;
48534;SDS011;34323;52.022;5.686;2023-06-26T08:42:04;3.67;;;2.08;;
48534;SDS011;34323;52.022;5.686;2023-06-26T08:44:30;4.95;;;2.15;;
48534;SDS011;34323;52.022;5.686;2023-06-26T08:46:56;4.05;;;2.47;;
48534;SDS011;34323;52.022;5.686;2023-06-26T08:49:34;4.97;;;1.80;;
48534;SDS011;34323;52.022;5.686;2023-06-26T08:55:02;4.97;;;1.98;;
48534;SDS011;34323;52.022;5.686;2023-06-26T08:57:31;5.82;;;2.20;;
48534;SDS011;34323;52.022;5.686;2023-06-26T08:59:57;8.57;;;2.22;;
48534;SDS011;34323;52.022;5.686;2023-06-26T09:02:23;3.83;;;1.70;;
48534;SDS011;34323;52.022;5.686;2023-06-26T09:04:49;4.70;;;2.15;;
48534;SDS011;34323;52.022;5.686;2023-06-26T09:07:15;4.68;;;1.80;;
48534;SDS011;34323;52.022;5.686;2023-06-26T09:09:41;3.47;;;2.15;;
48534;SDS011;34323;52.022;5.686;2023-06-26T09:12:08;3.33;;;1.33;;
48534;SDS011;34323;52.022;5.686;2023-06-26T09:14:34;8.80;;;1.70;;
48534;SDS011;34323;52.022;5.686;2023-06-26T09:17:01;4.90;;;1.35;;
48534;SDS011;34323;52.022;5.686;2023-06-26T09:19:27;5.95;;;1.60;;
48534;SDS011;34323;52.022;5.686;2023-06-26T09:21:52;2.83;;;1.45;;
48534;SDS011;34323;52.022;5.686;2023-06-26T09:24:20;3.28;;;1.17;;
48534;SDS011;34323;52.022;5.686;2023-06-26T09:26:47;2.63;;;1.20;;
48534;SDS011;34323;52.022;5.686;2023-06-26T09:29:13;2.70;;;1.20;;
48534;SDS011;34323;52.022;5.686;2023-06-26T09:31:39;5.05;;;1.17;;
48534;SDS011;34323;52.022;5.686;2023-06-26T09:34:05;4.68;;;1.88;;
48534;SDS011;34323;52.022;5.686;2023-06-26T09:36:31;5.32;;;1.10;;
48534;SDS011;34323;52.022;5.686;2023-06-26T09:39:01;4.43;;;1.38;;
48534;SDS011;34323;52.022;5.686;2023-06-26T09:41:29;1.48;;;0.95;;
48534;SDS011;34323;52.022;5.686;2023-06-26T09:43:56;3.90;;;1.77;;
48534;SDS011;34323;52.022;5.686;2023-06-26T09:46:29;4.88;;;1.13;;
48534;SDS011;34323;52.022;5.686;2023-06-26T09:49:06;2.47;;;1.02;;
48534;SDS011;34323;52.022;5.686;2023-06-26T09:51:34;6.63;;;1.55;;
48534;SDS011;34323;52.022;5.686;2023-06-26T09:54:01;3.35;;;1.20;;
48534;SDS011;34323;52.022;5.686;2023-06-26T09:56:27;1.70;;;0.80;;
48534;SDS011;34323;52.022;5.686;2023-06-26T09:58:57;5.20;;;1.00;;
48534;SDS011;34323;52.022;5.686;2023-06-26T10:01:24;1.63;;;0.93;;
48534;SDS011;34323;52.022;5.686;2023-06-26T10:03:50;3.17;;;0.85;;
48534;SDS011;34323;52.022;5.686;2023-06-26T10:06:24;3.95;;;1.50;;
48534;SDS011;34323;52.022;5.686;2023-06-26T10:08:52;3.83;;;1.40;;
48534;SDS011;34323;52.022;5.686;2023-06-26T10:11:19;10.02;;;1.38;;
48534;SDS011;34323;52.022;5.686;2023-06-26T10:13:48;3.55;;;1.23;;
48534;SDS011;34323;52.022;5.686;2023-06-26T10:16:25;4.60;;;1.23;;
48534;SDS011;34323;52.022;5.686;2023-06-26T10:18:53;7.20;;;1.27;;
48534;SDS011;34323;52.022;5.686;2023-06-26T10:21:24;2.25;;;1.25;;
48534;SDS011;34323;52.022;5.686;2023-06-26T10:23:53;6.68;;;1.20;;
48534;SDS011;34323;52.022;5.686;2023-06-26T10:26:21;3.65;;;0.98;;
48534;SDS011;34323;52.022;5.686;2023-06-26T10:28:47;3.58;;;0.98;;
48534;SDS011;34323;52.022;5.686;2023-06-26T10:31:17;3.03;;;0.90;;
48534;SDS011;34323;52.022;5.686;2023-06-26T10:33:46;3.97;;;1.13;;
48534;SDS011;34323;52.022;5.686;2023-06-26T10:36:20;0.93;;;0.70;;
48534;SDS011;34323;52.022;5.686;2023-06-26T10:38:57;5.32;;;1.30;;
48534;SDS011;34323;52.022;5.686;2023-06-26T10:41:26;3.10;;;1.10;;
48534;SDS011;34323;52.022;5.686;2023-06-26T10:46:23;4.22;;;1.08;;
48534;SDS011;34323;52.022;5.686;2023-06-26T10:48:55;2.78;;;1.05;;
48534;SDS011;34323;52.022;5.686;2023-06-26T10:51:28;5.38;;;0.70;;
48534;SDS011;34323;52.022;5.686;2023-06-26T10:53:54;2.67;;;1.25;;
48534;SDS011;34323;52.022;5.686;2023-06-26T10:56:21;7.82;;;0.95;;
48534;SDS011;34323;52.022;5.686;2023-06-26T10:59:15;2.78;;;0.90;;
48534;SDS011;34323;52.022;5.686;2023-06-26T11:01:42;3.97;;;1.10;;
48534;SDS011;34323;52.022;5.686;2023-06-26T11:04:09;2.58;;;1.20;;
48534;SDS011;34323;52.022;5.686;2023-06-26T11:06:35;2.75;;;1.08;;
48534;SDS011;34323;52.022;5.686;2023-06-26T11:14:17;6.47;;;0.93;;
48534;SDS011;34323;52.022;5.686;2023-06-26T11:16:44;2.67;;;0.98;;
48534;SDS011;34323;52.022;5.686;2023-06-26T11:19:10;1.17;;;0.82;;
48534;SDS011;34323;52.022;5.686;2023-06-26T11:21:38;5.60;;;1.08;;
48534;SDS011;34323;52.022;5.686;2023-06-26T11:24:06;3.90;;;0.90;;
48534;SDS011;34323;52.022;5.686;2023-06-26T11:26:37;1.83;;;0.75;;
48534;SDS011;34323;52.022;5.686;2023-06-26T11:29:03;2.70;;;1.00;;
48534;SDS011;34323;52.022;5.686;2023-06-26T11:31:30;12.38;;;2.10;;
48534;SDS011;34323;52.022;5.686;2023-06-26T11:33:57;3.78;;;1.40;;
48534;SDS011;34323;52.022;5.686;2023-06-26T11:36:30;3.55;;;1.48;;
48534;SDS011;34323;52.022;5.686;2023-06-26T11:38:56;6.80;;;1.00;;
48534;SDS011;34323;52.022;5.686;2023-06-26T11:41:24;5.18;;;1.52;;
48534;SDS011;34323;52.022;5.686;2023-06-26T11:43:52;3.72;;;0.90;;
48534;SDS011;34323;52.022;5.686;2023-06-26T11:46:18;4.43;;;1.10;;
48534;SDS011;34323;52.022;5.686;2023-06-26T11:48:45;2.08;;;1.00;;
48534;SDS011;34323;52.022;5.686;2023-06-26T11:51:14;3.30;;;1.20;;
48534;SDS011;34323;52.022;5.686;2023-06-26T11:53:41;5.65;;;1.33;;
48534;SDS011;34323;52.022;5.686;2023-06-26T11:56:08;4.25;;;1.08;;
48534;SDS011;34323;52.022;5.686;2023-06-26T11:58:35;10.77;;;1.48;;
48534;SDS011;34323;52.022;5.686;2023-06-26T12:01:01;3.13;;;1.00;;
48534;SDS011;34323;52.022;5.686;2023-06-26T12:03:27;4.65;;;1.00;;
48534;SDS011;34323;52.022;5.686;2023-06-26T12:05:54;1.63;;;0.85;;
48534;SDS011;34323;52.022;5.686;2023-06-26T12:08:20;5.75;;;1.10;;
48534;SDS011;34323;52.022;5.686;2023-06-26T12:10:46;2.15;;;0.90;;
48534;SDS011;34323;52.022;5.686;2023-06-26T12:13:12;1.50;;;0.88;;
48534;SDS011;34323;52.022;5.686;2023-06-26T12:15:38;1.52;;;0.95;;
48534;SDS011;34323;52.022;5.686;2023-06-26T12:18:10;3.72;;;0.93;;
48534;SDS011;34323;52.022;5.686;2023-06-26T12:20:39;2.33;;;1.00;;
48534;SDS011;34323;52.022;5.686;2023-06-26T12:23:11;2.10;;;0.90;;
48534;SDS011;34323;52.022;5.686;2023-06-26T12:25:37;3.95;;;0.95;;
48534;SDS011;34323;52.022;5.686;2023-06-26T12:28:03;3.25;;;1.17;;
48534;SDS011;34323;52.022;5.686;2023-06-26T12:30:28;3.25;;;1.02;;
48534;SDS011;34323;52.022;5.686;2023-06-26T12:32:54;2.55;;;1.00;;
48534;SDS011;34323;52.022;5.686;2023-06-26T12:35:20;4.00;;;0.88;;
48534;SDS011;34323;52.022;5.686;2023-06-26T12:37:46;4.38;;;0.85;;
48534;SDS011;34323;52.022;5.686;2023-06-26T12:40:18;2.45;;;1.15;;
48534;SDS011;34323;52.022;5.686;2023-06-26T12:42:47;5.18;;;0.82;;
48534;SDS011;34323;52.022;5.686;2023-06-26T12:45:13;3.75;;;1.00;;
48534;SDS011;34323;52.022;5.686;2023-06-26T12:47:39;3.70;;;0.93;;
48534;SDS011;34323;52.022;5.686;2023-06-26T12:50:06;8.63;;;1.48;;
48534;SDS011;34323;52.022;5.686;2023-06-26T12:52:33;3.30;;;0.90;;
48534;SDS011;34323;52.022;5.686;2023-06-26T12:54:58;3.50;;;0.98;;
48534;SDS011;34323;52.022;5.686;2023-06-26T12:57:24;7.45;;;1.30;;
48534;SDS011;34323;52.022;5.686;2023-06-26T12:59:51;4.78;;;0.80;;
48534;SDS011;34323;52.022;5.686;2023-06-26T13:02:16;2.10;;;1.00;;
48534;SDS011;34323;52.022;5.686;2023-06-26T13:04:42;4.32;;;0.85;;
48534;SDS011;34323;52.022;5.686;2023-06-26T13:07:09;2.83;;;0.82;;
48534;SDS011;34323;52.022;5.686;2023-06-26T13:09:35;3.40;;;0.85;;
48534;SDS011;34323;52.022;5.686;2023-06-26T13:12:01;5.10;;;0.88;;
48534;SDS011;34323;52.022;5.686;2023-06-26T13:14:31;5.47;;;1.70;;
48534;SDS011;34323;52.022;5.686;2023-06-26T13:16:57;6.30;;;1.00;;
48534;SDS011;34323;52.022;5.686;2023-06-26T13:19:23;2.03;;;0.80;;
48534;SDS011;34323;52.022;5.686;2023-06-26T13:21:48;1.75;;;0.55;;
48534;SDS011;34323;52.022;5.686;2023-06-26T13:24:14;4.88;;;0.85;;
48534;SDS011;34323;52.022;5.686;2023-06-26T13:26:40;4.40;;;0.80;;
48534;SDS011;34323;52.022;5.686;2023-06-26T13:29:06;14.80;;;1.85;;
48534;SDS011;34323;52.022;5.686;2023-06-26T13:31:32;6.38;;;1.60;;
48534;SDS011;34323;52.022;5.686;2023-06-26T13:33:58;2.05;;;0.77;;
48534;SDS011;34323;52.022;5.686;2023-06-26T13:36:24;1.70;;;0.70;;
48534;SDS011;34323;52.022;5.686;2023-06-26T13:38:50;4.03;;;0.82;;
48534;SDS011;34323;52.022;5.686;2023-06-26T13:41:20;1.55;;;0.70;;
48534;SDS011;34323;52.022;5.686;2023-06-26T13:43:49;2.17;;;0.80;;
48534;SDS011;34323;52.022;5.686;2023-06-26T13:46:15;2.83;;;0.77;;
48534;SDS011;34323;52.022;5.686;2023-06-26T13:48:42;4.55;;;0.90;;
48534;SDS011;34323;52.022;5.686;2023-06-26T13:51:08;2.33;;;1.00;;
48534;SDS011;34323;52.022;5.686;2023-06-26T13:53:33;2.95;;;0.90;;
48534;SDS011;34323;52.022;5.686;2023-06-26T13:55:59;3.05;;;0.80;;
48534;SDS011;34323;52.022;5.686;2023-06-26T13:58:24;13.45;;;1.17;;
48534;SDS011;34323;52.022;5.686;2023-06-26T14:00:52;7.15;;;1.02;;
48534;SDS011;34323;52.022;5.686;2023-06-26T14:03:18;4.35;;;0.70;;
48534;SDS011;34323;52.022;5.686;2023-06-26T14:05:44;1.48;;;0.85;;
48534;SDS011;34323;52.022;5.686;2023-06-26T14:08:09;2.78;;;1.08;;
48534;SDS011;34323;52.022;5.686;2023-06-26T14:10:36;2.42;;;0.65;;
48534;SDS011;34323;52.022;5.686;2023-06-26T14:13:02;3.75;;;0.98;;
48534;SDS011;34323;52.022;5.686;2023-06-26T14:15:28;2.53;;;0.95;;
48534;SDS011;34323;52.022;5.686;2023-06-26T14:17:54;1.80;;;0.70;;
48534;SDS011;34323;52.022;5.686;2023-06-26T14:20:21;4.68;;;0.75;;
48534;SDS011;34323;52.022;5.686;2023-06-26T14:22:47;2.97;;;0.70;;
48534;SDS011;34323;52.022;5.686;2023-06-26T14:25:13;4.85;;;0.95;;
48534;SDS011;34323;52.022;5.686;2023-06-26T14:27:39;5.90;;;1.00;;
48534;SDS011;34323;52.022;5.686;2023-06-26T14:30:06;1.10;;;0.73;;
48534;SDS011;34323;52.022;5.686;2023-06-26T14:32:32;2.78;;;1.02;;
48534;SDS011;34323;52.022;5.686;2023-06-26T14:34:58;1.95;;;0.70;;
48534;SDS011;34323;52.022;5.686;2023-06-26T14:37:24;1.73;;;0.70;;
48534;SDS011;34323;52.022;5.686;2023-06-26T14:39:51;4.20;;;1.15;;
48534;SDS011;34323;52.022;5.686;2023-06-26T14:42:16;1.92;;;0.93;;
48534;SDS011;34323;52.022;5.686;2023-06-26T14:44:42;2.30;;;0.88;;
48534;SDS011;34323;52.022;5.686;2023-06-26T14:47:08;5.85;;;0.93;;
48534;SDS011;34323;52.022;5.686;2023-06-26T14:49:33;3.42;;;1.10;;
48534;SDS011;34323;52.022;5.686;2023-06-26T14:51:59;1.35;;;0.85;;
48534;SDS011;34323;52.022;5.686;2023-06-26T14:54:25;3.08;;;1.08;;
48534;SDS011;34323;52.022;5.686;2023-06-26T14:56:50;2.20;;;0.80;;
48534;SDS011;34323;52.022;5.686;2023-06-26T14:59:16;7.80;;;1.00;;
48534;SDS011;34323;52.022;5.686;2023-06-26T15:01:41;3.45;;;0.60;;
48534;SDS011;34323;52.022;5.686;2023-06-26T15:04:07;3.85;;;0.90;;